createdAt,value
2023-01-28T00:02:25.361Z,-1.55
2023-01-28T00:04:53.592Z,-1.54
2023-01-28T00:07:21.911Z,-1.56
2023-01-28T00:09:53.655Z,-1.53
2023-01-28T00:12:22.094Z,-1.47
2023-01-28T00:14:50.634Z,-1.44
2023-01-28T00:17:18.984Z,-1.43
2023-01-28T00:19:47.344Z,-1.43
2023-01-28T00:22:18.626Z,-1.42
2023-01-28T00:24:47.090Z,-1.43
2023-01-28T00:27:15.479Z,-1.41
2023-01-28T00:29:43.954Z,-1.38
2023-01-28T00:32:14.683Z,-1.41
2023-01-28T00:34:42.963Z,-1.49
2023-01-28T00:37:13.995Z,-1.51
2023-01-28T00:39:42.375Z,-1.53
2023-01-28T00:42:10.897Z,-1.57
2023-01-28T00:44:39.398Z,-1.62
2023-01-28T00:47:07.921Z,-1.69
2023-01-28T00:49:36.182Z,-1.71
2023-01-28T00:52:05.311Z,-1.71
2023-01-28T00:54:36.647Z,-1.71
2023-01-28T00:57:04.915Z,-1.71
2023-01-28T00:59:36.093Z,-1.68
2023-01-28T01:02:12.784Z,-1.64
2023-01-28T01:04:41.243Z,-1.63
2023-01-28T01:07:09.691Z,-1.69
2023-01-28T01:09:38.994Z,-1.73
2023-01-28T01:12:08.564Z,-1.75
2023-01-28T01:14:37.693Z,-1.74
2023-01-28T01:17:05.948Z,-1.72
2023-01-28T01:19:37.546Z,-1.69
2023-01-28T01:22:05.792Z,-1.65
2023-01-28T01:24:35.984Z,-1.63
2023-01-28T01:27:06.090Z,-1.63
2023-01-28T01:29:34.616Z,-1.63
2023-01-28T01:32:03.595Z,-1.66
2023-01-28T01:34:31.990Z,-1.66
2023-01-28T01:37:00.331Z,-1.64
2023-01-28T01:39:28.761Z,-1.66
2023-01-28T01:41:57.231Z,-1.69
2023-01-28T01:45:03.897Z,-1.68
2023-01-28T01:47:36.435Z,-1.69
2023-01-28T01:50:10.794Z,-1.72
2023-01-28T01:52:39.060Z,-1.80
2023-01-28T01:55:10.990Z,-1.84
2023-01-28T01:57:39.136Z,-1.85
2023-01-28T02:00:08.726Z,-1.89
2023-01-28T02:02:47.079Z,-1.91
2023-01-28T02:05:19.826Z,-1.89
2023-01-28T02:07:48.896Z,-1.86
2023-01-28T02:10:18.915Z,-1.82
2023-01-28T02:12:50.667Z,-1.82
2023-01-28T02:15:20.371Z,-1.84
2023-01-28T02:17:50.112Z,-1.86
2023-01-28T02:20:26.371Z,-1.89
2023-01-28T02:23:07.040Z,-1.92
2023-01-28T02:25:39.405Z,-1.93
2023-01-28T02:28:39.102Z,-1.92
2023-01-28T02:31:25.177Z,-1.88
2023-01-28T02:34:02.524Z,-1.86
2023-01-28T02:36:50.526Z,-1.80
2023-01-28T02:39:30.432Z,-1.75
2023-01-28T02:42:02.894Z,-1.72
2023-01-28T02:44:31.626Z,-1.67
2023-01-28T02:47:18.554Z,-1.65
2023-01-28T02:49:51.255Z,-1.66
2023-01-28T02:53:00.153Z,-1.64
2023-01-28T02:55:45.215Z,-1.63
2023-01-28T02:58:24.305Z,-1.61
2023-01-28T03:01:05.626Z,-1.58
2023-01-28T03:03:59.924Z,-1.57
2023-01-28T03:06:42.218Z,-1.59
2023-01-28T03:09:22.830Z,-1.60
2023-01-28T03:12:15.876Z,-1.59
2023-01-28T03:15:05.892Z,-1.60
2023-01-28T03:17:58.679Z,-1.63
2023-01-28T03:20:47.537Z,-1.64
2023-01-28T03:23:37.672Z,-1.62
2023-01-28T03:26:27.175Z,-1.60
2023-01-28T03:29:14.547Z,-1.62
2023-01-28T03:32:01.658Z,-1.67
2023-01-28T03:34:49.383Z,-1.73
2023-01-28T03:37:17.946Z,-1.74
2023-01-28T03:39:51.897Z,-1.78
2023-01-28T03:42:20.871Z,-1.84
2023-01-28T03:45:15.740Z,-1.85
2023-01-28T03:47:46.701Z,-1.87
2023-01-28T03:50:15.376Z,-1.88
2023-01-28T03:52:52.022Z,-1.87
2023-01-28T03:55:26.656Z,-1.80
2023-01-28T03:57:56.620Z,-1.77
2023-01-28T04:00:25.350Z,-1.74
2023-01-28T04:02:55.347Z,-1.73
2023-01-28T04:05:25.559Z,-1.76
2023-01-28T04:07:55.216Z,-1.84
2023-01-28T04:10:55.565Z,-1.90
2023-01-28T04:13:28.878Z,-1.91
2023-01-28T04:15:57.245Z,-1.93
2023-01-28T04:18:27.504Z,-1.94
2023-01-28T04:20:58.382Z,-1.92
2023-01-28T04:23:26.962Z,-1.92
2023-01-28T04:25:56.050Z,-1.96
2023-01-28T04:28:24.734Z,-1.97
2023-01-28T04:30:53.366Z,-1.96
2023-01-28T04:33:44.388Z,-1.96
2023-01-28T04:36:27.312Z,-1.95
2023-01-28T04:39:28.545Z,-2.00
2023-01-28T04:42:19.439Z,-2.02
2023-01-28T04:45:08.976Z,-2.06
2023-01-28T04:47:59.297Z,-2.10
2023-01-28T04:50:48.026Z,-2.15
2023-01-28T04:53:36.503Z,-2.14
2023-01-28T04:56:09.394Z,-2.13
2023-01-28T04:58:38.033Z,-2.08
2023-01-28T05:01:14.203Z,-2.04
2023-01-28T05:03:42.797Z,-2.02
2023-01-28T05:06:14.975Z,-2.00
2023-01-28T05:08:46.717Z,-1.96
2023-01-28T05:11:16.651Z,-2.00
2023-01-28T05:13:46.750Z,-2.06
2023-01-28T05:16:15.613Z,-2.10
2023-01-28T05:18:48.193Z,-2.13
2023-01-28T05:21:19.465Z,-2.14
2023-01-28T05:23:53.133Z,-2.17
2023-01-28T05:26:22.280Z,-2.19
2023-01-28T05:28:51.684Z,-2.21
2023-01-28T05:31:22.794Z,-2.19
2023-01-28T05:33:53.084Z,-2.19
2023-01-28T05:36:21.845Z,-2.20
2023-01-28T05:38:50.698Z,-2.22
2023-01-28T05:41:19.173Z,-2.23
2023-01-28T05:43:50.522Z,-2.21
2023-01-28T05:46:48.725Z,-2.20
2023-01-28T05:49:37.310Z,-2.20
2023-01-28T05:52:25.598Z,-2.21
2023-01-28T05:54:53.871Z,-2.19
2023-01-28T05:57:23.803Z,-2.15
2023-01-28T05:59:52.678Z,-2.15
2023-01-28T06:02:22.456Z,-2.16
2023-01-28T06:04:54.177Z,-2.14
2023-01-28T06:07:24.129Z,-2.13
2023-01-28T06:09:52.465Z,-2.12
2023-01-28T06:12:22.965Z,-2.10
2023-01-28T06:15:12.034Z,-2.10
2023-01-28T06:18:03.360Z,-2.11
2023-01-28T06:20:35.822Z,-2.06
2023-01-28T06:23:04.620Z,-2.03
2023-01-28T06:25:33.495Z,-2.03
2023-01-28T06:28:07.724Z,-2.04
2023-01-28T06:30:36.241Z,-2.06
2023-01-28T06:33:04.515Z,-2.09
2023-01-28T06:35:35.710Z,-2.09
2023-01-28T06:38:04.736Z,-2.09
2023-01-28T06:40:32.845Z,-2.10
2023-01-28T06:43:00.920Z,-2.09
2023-01-28T06:45:29.511Z,-2.08
2023-01-28T06:47:57.779Z,-2.04
2023-01-28T06:53:11.519Z,-2.00
2023-01-28T06:55:39.630Z,-2.02
2023-01-28T06:58:11.566Z,-2.01
2023-01-28T07:00:39.924Z,-1.98
2023-01-28T07:03:08.137Z,-1.92
2023-01-28T07:05:36.247Z,-1.86
2023-01-28T07:08:04.706Z,-1.82
2023-01-28T07:10:33.464Z,-1.78
2023-01-28T07:13:02.034Z,-1.75
2023-01-28T07:15:47.398Z,-1.71
2023-01-28T07:18:15.435Z,-1.69
2023-01-28T07:20:47.704Z,-1.65
2023-01-28T07:23:15.960Z,-1.61
2023-01-28T07:25:44.056Z,-1.60
2023-01-28T07:42:19.757Z,-1.48
2023-01-28T07:54:04.782Z,-1.20
2023-01-28T14:38:31.900Z,-1.37
2023-01-28T14:41:00.212Z,-1.35
2023-01-28T14:43:28.791Z,-1.34
2023-01-28T14:46:19.929Z,-1.32
2023-01-28T14:49:16.452Z,-1.32
2023-01-28T14:51:51.168Z,-1.32
2023-01-28T14:54:41.470Z,-1.40
2023-01-28T14:57:58.479Z,-1.44
2023-01-28T15:00:32.569Z,-1.47
2023-01-28T15:03:02.733Z,-1.50
2023-01-28T15:05:34.280Z,-1.48
2023-01-28T15:08:03.085Z,-1.48
2023-01-28T15:10:32.629Z,-1.53
2023-01-28T15:13:08.247Z,-1.55
2023-01-28T15:15:39.567Z,-1.55
2023-01-28T15:18:32.785Z,-1.57
2023-01-28T15:21:01.069Z,-1.60
2023-01-28T15:31:19.996Z,-1.68
2023-01-28T15:34:13.460Z,-1.71
2023-01-28T15:36:41.834Z,-1.73
2023-01-28T15:39:18.767Z,-1.69
2023-01-28T15:41:53.145Z,-1.65
2023-01-28T15:44:29.445Z,-1.63
2023-01-28T15:46:58.703Z,-1.65
2023-01-28T15:49:31.287Z,-1.68
2023-01-28T15:51:59.419Z,-1.71
2023-01-28T15:54:30.488Z,-1.74
2023-01-28T15:57:08.371Z,-1.73
2023-01-28T15:59:36.682Z,-1.76
2023-01-28T16:02:26.588Z,-1.74
2023-01-28T16:04:59.166Z,-1.63
2023-01-28T16:13:20.152Z,-1.55
2023-01-28T16:15:49.532Z,-1.64
2023-01-28T16:18:48.376Z,-1.68
2023-01-28T16:21:26.773Z,-1.70
2023-01-28T16:27:26.939Z,-1.76
2023-01-28T16:29:55.251Z,-1.82
2023-01-28T16:32:42.909Z,-1.86
2023-01-28T16:35:18.837Z,-1.88
2023-01-28T16:37:50.756Z,-1.90
2023-01-28T16:40:22.601Z,-1.92
2023-01-28T16:42:50.758Z,-1.95
2023-01-28T16:45:20.745Z,-1.97
2023-01-28T16:47:49.375Z,-1.97
2023-01-28T16:50:22.194Z,-1.96
2023-01-28T16:52:51.263Z,-1.95
2023-01-28T16:55:20.560Z,-1.94
2023-01-28T16:57:50.184Z,-1.95
2023-01-28T17:00:25.743Z,-1.97
2023-01-28T17:02:55.007Z,-1.99
2023-01-28T17:05:23.630Z,-2.05
2023-01-28T17:07:56.672Z,-2.11
2023-01-28T17:10:25.254Z,-2.17
2023-01-28T17:12:54.671Z,-2.18
2023-01-28T17:15:22.969Z,-2.16
2023-01-28T17:17:53.194Z,-2.18
2023-01-28T17:20:21.642Z,-2.19
2023-01-28T17:22:50.298Z,-2.19
2023-01-28T17:25:18.813Z,-2.25
2023-01-28T17:27:51.614Z,-2.26
2023-01-28T17:30:20.901Z,-2.26
2023-01-28T17:32:49.493Z,-2.20
2023-01-28T17:35:18.135Z,-2.14
2023-01-28T17:37:48.204Z,-2.10
2023-01-28T17:40:16.464Z,-2.06
2023-01-28T17:42:44.796Z,-2.06
2023-01-28T17:45:17.496Z,-2.07
2023-01-28T17:47:46.402Z,-2.08
2023-01-28T17:50:14.829Z,-2.06
2023-01-28T17:52:43.675Z,-2.01
2023-01-28T17:55:12.254Z,-1.98
2023-01-28T17:57:40.516Z,-1.99
2023-01-28T18:00:12.815Z,-2.00
2023-01-28T18:02:40.879Z,-1.99
2023-01-28T18:05:09.656Z,-1.98
2023-01-28T18:07:46.296Z,-1.99
2023-01-28T18:10:15.001Z,-2.03
2023-01-28T18:12:43.292Z,-2.03
2023-01-28T18:17:58.380Z,-2.05
2023-01-28T18:20:29.461Z,-2.02
2023-01-28T18:22:57.659Z,-1.98
2023-01-28T18:25:26.264Z,-1.93
2023-01-28T18:27:54.943Z,-1.89
2023-01-28T18:30:23.121Z,-1.90
2023-01-28T18:32:51.599Z,-1.88
2023-01-28T18:35:19.911Z,-1.86
2023-01-28T18:37:48.247Z,-1.83
2023-01-28T18:40:19.747Z,-1.79
2023-01-28T18:42:47.919Z,-1.78
2023-01-28T18:45:17.142Z,-1.76
2023-01-28T18:47:47.347Z,-1.71
2023-01-28T18:50:16.087Z,-1.65
2023-01-28T18:52:47.333Z,-1.59
2023-01-28T18:58:02.600Z,-1.51
2023-01-28T19:00:32.276Z,-1.48
2023-01-28T19:03:02.247Z,-1.49
2023-01-28T19:05:37.823Z,-1.47
2023-01-28T19:08:06.986Z,-1.45
2023-01-28T19:10:35.625Z,-1.43
2023-01-28T19:15:51.141Z,-1.42
2023-01-28T19:18:22.921Z,-1.43
2023-01-28T19:20:51.560Z,-1.41
2023-01-28T19:23:19.949Z,-1.36
2023-01-28T19:25:48.015Z,-1.29
2023-01-28T19:28:34.665Z,-1.20
2023-01-28T19:31:02.915Z,-1.14
2023-01-28T19:33:31.043Z,-1.13
2023-01-28T19:35:59.662Z,-1.13
2023-01-28T19:38:28.439Z,-1.14
2023-01-28T19:40:56.968Z,-1.16
2023-01-28T19:46:14.306Z,-1.19
2023-01-28T19:48:42.927Z,-1.23
2023-01-28T19:51:14.896Z,-1.23
2023-01-28T19:53:43.438Z,-1.22
2023-01-28T19:56:13.756Z,-1.20
2023-01-28T19:58:43.502Z,-1.18
2023-01-28T20:01:12.681Z,-1.14
2023-01-28T20:03:41.072Z,-1.12
2023-01-28T20:06:14.342Z,-1.12
2023-01-28T20:08:42.753Z,-1.12
2023-01-28T20:11:15.447Z,-1.12
2023-01-28T20:14:01.278Z,-1.10
2023-01-28T20:16:33.245Z,-1.09
2023-01-28T20:19:05.895Z,-1.12
2023-01-28T20:21:35.637Z,-1.14
2023-01-28T20:24:04.730Z,-1.16
2023-01-28T20:26:35.588Z,-1.18
2023-01-28T20:29:22.674Z,-1.20
2023-01-28T20:32:05.315Z,-1.19
2023-01-28T20:34:42.494Z,-1.15
2023-01-28T20:37:10.599Z,-1.13
2023-01-28T20:39:39.435Z,-1.17
2023-01-28T20:42:10.250Z,-1.20
2023-01-28T20:44:38.306Z,-1.23
2023-01-28T20:47:06.667Z,-1.26
2023-01-28T20:49:35.526Z,-1.29
2023-01-28T20:52:04.603Z,-1.33
2023-01-28T20:54:34.423Z,-1.39
2023-01-28T20:57:02.633Z,-1.41
2023-01-28T20:59:32.506Z,-1.40
2023-01-28T21:02:01.092Z,-1.37
2023-01-28T21:04:29.716Z,-1.35
2023-01-28T21:07:01.219Z,-1.33
2023-01-28T21:09:29.812Z,-1.30
2023-01-28T21:11:59.247Z,-1.31
2023-01-28T21:14:27.817Z,-1.31
2023-01-28T21:16:56.351Z,-1.31
2023-01-28T21:19:24.797Z,-1.33
2023-01-28T21:21:53.028Z,-1.35
2023-01-28T21:32:08.111Z,-1.21
2023-01-28T21:34:36.914Z,-1.16
2023-01-28T21:37:05.047Z,-1.12
2023-01-28T21:39:33.379Z,-1.09
2023-01-28T21:42:01.895Z,-1.14
2023-01-28T21:44:30.371Z,-1.18
2023-01-28T21:46:58.518Z,-1.19
2023-01-28T21:49:27.647Z,-1.20
2023-01-28T21:51:55.999Z,-1.22
2023-01-28T21:54:24.406Z,-1.22
2023-01-28T21:56:53.682Z,-1.19
2023-01-28T21:59:29.051Z,-1.16
2023-01-28T22:01:58.270Z,-1.15
2023-01-28T22:04:32.025Z,-1.14
2023-01-28T22:07:00.603Z,-1.15
2023-01-28T22:09:29.174Z,-1.18
2023-01-28T22:11:57.703Z,-1.17
2023-01-28T22:14:29.620Z,-1.16
2023-01-28T22:16:58.064Z,-1.14
2023-01-28T22:19:26.883Z,-1.11
2023-01-28T22:21:55.162Z,-1.07
2023-01-28T22:24:26.790Z,-1.07
2023-01-28T22:26:55.302Z,-1.05
2023-01-28T22:29:24.312Z,-1.07
2023-01-28T22:31:53.227Z,-1.08
2023-01-28T22:34:22.067Z,-1.10
2023-01-28T22:36:53.426Z,-1.09
2023-01-28T22:39:22.003Z,-1.09
2023-01-28T22:41:52.922Z,-1.09
2023-01-28T22:44:24.094Z,-1.05
2023-01-28T22:49:41.313Z,-0.93
2023-01-28T22:52:09.679Z,-0.91
2023-01-28T22:54:38.114Z,-0.90
2023-01-28T22:57:06.457Z,-0.90
2023-01-28T22:59:36.006Z,-0.92
2023-01-28T23:02:07.127Z,-0.96
2023-01-28T23:04:53.208Z,-0.96
2023-01-28T23:07:21.777Z,-0.97
2023-01-28T23:09:50.191Z,-0.96
2023-01-28T23:12:18.945Z,-0.96
2023-01-28T23:15:05.996Z,-0.94
2023-01-28T23:18:13.460Z,-0.92
2023-01-28T23:21:00.770Z,-0.94
2023-01-28T23:23:47.904Z,-0.96
2023-01-28T23:26:16.473Z,-0.95
2023-01-28T23:28:44.685Z,-0.94
2023-01-28T23:31:13.867Z,-0.90
2023-01-28T23:33:42.302Z,-0.84
2023-01-28T23:36:10.433Z,-0.80
2023-01-28T23:38:38.877Z,-0.82
2023-01-28T23:41:07.390Z,-0.89
2023-01-28T23:43:35.628Z,-0.97
2023-01-28T23:46:04.007Z,-1.01
2023-01-28T23:48:32.502Z,-1.00
2023-01-28T23:51:00.659Z,-0.98
2023-01-28T23:53:29.066Z,-0.96
2023-01-28T23:56:14.562Z,-0.94
2023-01-28T23:58:44.139Z,-0.94
